sensor_id;sensor_type;location;lat;lon;timestamp;temperature;humidity
7163;DHT22;3623;47.098;15.446;2022-12-18T00:02:22;-3.10;99.90
7163;DHT22;3623;47.098;15.446;2022-12-18T00:04:49;-3.80;99.90
7163;DHT22;3623;47.098;15.446;2022-12-18T00:07:16;-3.90;99.90
7163;DHT22;3623;47.098;15.446;2022-12-18T00:09:43;-3.20;99.90
7163;DHT22;3623;47.098;15.446;2022-12-18T00:12:10;-3.30;99.90
7163;DHT22;3623;47.098;15.446;2022-12-18T00:14:39;-3.90;99.90
7163;DHT22;3623;47.098;15.446;2022-12-18T00:17:06;-4.00;99.90
7163;DHT22;3623;47.098;15.446;2022-12-18T00:19:33;-4.10;99.90
7163;DHT22;3623;47.098;15.446;2022-12-18T00:22:00;-4.00;99.90
7163;DHT22;3623;47.098;15.446;2022-12-18T00:24:27;-3.50;99.90
7163;DHT22;3623;47.098;15.446;2022-12-18T00:26:54;-3.80;99.90
7163;DHT22;3623;47.098;15.446;2022-12-18T00:29:21;-3.20;99.90
7163;DHT22;3623;47.098;15.446;2022-12-18T00:31:50;-4.00;99.90
7163;DHT22;3623;47.098;15.446;2022-12-18T00:34:17;-4.10;99.90
7163;DHT22;3623;47.098;15.446;2022-12-18T00:36:44;-4.10;99.90
7163;DHT22;3623;47.098;15.446;2022-12-18T00:39:14;-4.10;99.90
7163;DHT22;3623;47.098;15.446;2022-12-18T00:41:41;-4.00;99.90
7163;DHT22;3623;47.098;15.446;2022-12-18T00:44:25;-4.00;99.90
7163;DHT22;3623;47.098;15.446;2022-12-18T00:46:54;-4.10;99.90
7163;DHT22;3623;47.098;15.446;2022-12-18T00:49:21;-4.20;99.90
7163;DHT22;3623;47.098;15.446;2022-12-18T00:51:48;-3.50;99.90
7163;DHT22;3623;47.098;15.446;2022-12-18T00:54:16;-4.20;99.90
7163;DHT22;3623;47.098;15.446;2022-12-18T00:56:43;-4.10;99.90
7163;DHT22;3623;47.098;15.446;2022-12-18T00:59:10;-3.80;99.90
7163;DHT22;3623;47.098;15.446;2022-12-18T01:01:38;-4.00;99.90
7163;DHT22;3623;47.098;15.446;2022-12-18T01:04:06;-4.10;99.90
7163;DHT22;3623;47.098;15.446;2022-12-18T01:06:33;-4.00;99.90
7163;DHT22;3623;47.098;15.446;2022-12-18T01:09:01;-4.00;99.90
7163;DHT22;3623;47.098;15.446;2022-12-18T01:11:28;-3.30;99.90
7163;DHT22;3623;47.098;15.446;2022-12-18T01:13:55;-4.00;99.90
7163;DHT22;3623;47.098;15.446;2022-12-18T01:16:25;-4.00;99.90
7163;DHT22;3623;47.098;15.446;2022-12-18T01:18:53;-3.80;99.90
7163;DHT22;3623;47.098;15.446;2022-12-18T01:21:22;-3.40;99.90
7163;DHT22;3623;47.098;15.446;2022-12-18T01:23:52;-4.10;99.90
7163;DHT22;3623;47.098;15.446;2022-12-18T01:26:20;-4.10;99.90
7163;DHT22;3623;47.098;15.446;2022-12-18T01:28:47;-4.10;99.90
7163;DHT22;3623;47.098;15.446;2022-12-18T01:31:17;-4.00;99.90
7163;DHT22;3623;47.098;15.446;2022-12-18T01:33:45;-4.10;99.90
7163;DHT22;3623;47.098;15.446;2022-12-18T01:36:16;-4.10;99.90
7163;DHT22;3623;47.098;15.446;2022-12-18T01:38:45;-3.50;99.90
7163;DHT22;3623;47.098;15.446;2022-12-18T01:41:13;-3.60;99.90
7163;DHT22;3623;47.098;15.446;2022-12-18T01:43:52;-4.10;99.90
7163;DHT22;3623;47.098;15.446;2022-12-18T01:46:20;-4.00;99.90
7163;DHT22;3623;47.098;15.446;2022-12-18T01:48:52;-4.20;99.90
7163;DHT22;3623;47.098;15.446;2022-12-18T01:51:20;-4.20;99.90
7163;DHT22;3623;47.098;15.446;2022-12-18T01:53:49;-4.30;99.90
7163;DHT22;3623;47.098;15.446;2022-12-18T01:56:18;-3.20;99.90
7163;DHT22;3623;47.098;15.446;2022-12-18T01:58:52;-4.20;99.90
7163;DHT22;3623;47.098;15.446;2022-12-18T02:01:23;-4.10;99.90
7163;DHT22;3623;47.098;15.446;2022-12-18T02:03:51;-4.20;99.90
7163;DHT22;3623;47.098;15.446;2022-12-18T02:06:23;-3.50;99.90
7163;DHT22;3623;47.098;15.446;2022-12-18T02:09:02;-3.80;99.90
7163;DHT22;3623;47.098;15.446;2022-12-18T02:11:39;-3.60;99.90
7163;DHT22;3623;47.098;15.446;2022-12-18T02:14:17;-4.10;99.90
7163;DHT22;3623;47.098;15.446;2022-12-18T02:16:49;-3.90;99.90
7163;DHT22;3623;47.098;15.446;2022-12-18T02:19:39;-4.20;99.90
7163;DHT22;3623;47.098;15.446;2022-12-18T02:22:17;-4.10;99.90
7163;DHT22;3623;47.098;15.446;2022-12-18T02:24:59;-4.10;99.90
7163;DHT22;3623;47.098;15.446;2022-12-18T02:27:30;-4.10;99.90
7163;DHT22;3623;47.098;15.446;2022-12-18T02:30:00;-4.30;99.90
7163;DHT22;3623;47.098;15.446;2022-12-18T02:32:29;-3.80;99.90
7163;DHT22;3623;47.098;15.446;2022-12-18T02:34:58;-4.30;99.90
7163;DHT22;3623;47.098;15.446;2022-12-18T02:37:27;-4.40;99.90
7163;DHT22;3623;47.098;15.446;2022-12-18T02:39:56;-4.20;99.90
7163;DHT22;3623;47.098;15.446;2022-12-18T02:42:24;-4.40;99.90
7163;DHT22;3623;47.098;15.446;2022-12-18T02:44:52;-3.60;99.90
7163;DHT22;3623;47.098;15.446;2022-12-18T02:47:29;-4.30;99.90
7163;DHT22;3623;47.098;15.446;2022-12-18T02:50:07;-4.40;99.90
7163;DHT22;3623;47.098;15.446;2022-12-18T02:52:44;-4.30;99.90
7163;DHT22;3623;47.098;15.446;2022-12-18T02:55:28;-3.70;99.90
7163;DHT22;3623;47.098;15.446;2022-12-18T02:58:03;-4.30;99.90
7163;DHT22;3623;47.098;15.446;2022-12-18T03:00:37;-3.70;99.90
7163;DHT22;3623;47.098;15.446;2022-12-18T03:03:11;-4.40;99.90
7163;DHT22;3623;47.098;15.446;2022-12-18T03:05:44;-4.20;99.90
7163;DHT22;3623;47.098;15.446;2022-12-18T03:08:20;-4.40;99.90
7163;DHT22;3623;47.098;15.446;2022-12-18T03:10:51;-4.00;99.90
7163;DHT22;3623;47.098;15.446;2022-12-18T03:13:23;-3.40;99.90
7163;DHT22;3623;47.098;15.446;2022-12-18T03:15:57;-3.70;99.90
7163;DHT22;3623;47.098;15.446;2022-12-18T03:18:29;-4.50;99.90
7163;DHT22;3623;47.098;15.446;2022-12-18T03:20:59;-3.70;99.90
7163;DHT22;3623;47.098;15.446;2022-12-18T03:23:30;-4.50;99.90
7163;DHT22;3623;47.098;15.446;2022-12-18T03:26:01;-4.40;99.90
7163;DHT22;3623;47.098;15.446;2022-12-18T03:28:33;-4.40;99.90
7163;DHT22;3623;47.098;15.446;2022-12-18T03:31:04;-4.40;99.90
7163;DHT22;3623;47.098;15.446;2022-12-18T03:33:38;-4.30;99.90
7163;DHT22;3623;47.098;15.446;2022-12-18T03:36:06;-4.40;99.90
7163;DHT22;3623;47.098;15.446;2022-12-18T03:38:34;-4.50;99.90
7163;DHT22;3623;47.098;15.446;2022-12-18T03:41:07;-4.40;99.90
7163;DHT22;3623;47.098;15.446;2022-12-18T03:43:44;-4.40;99.90
7163;DHT22;3623;47.098;15.446;2022-12-18T03:46:20;-4.40;99.90
7163;DHT22;3623;47.098;15.446;2022-12-18T03:48:52;-3.40;99.90
7163;DHT22;3623;47.098;15.446;2022-12-18T03:51:26;-4.60;99.90
7163;DHT22;3623;47.098;15.446;2022-12-18T03:53:58;-4.50;99.90
7163;DHT22;3623;47.098;15.446;2022-12-18T03:56:27;-4.50;99.90
7163;DHT22;3623;47.098;15.446;2022-12-18T03:58:56;-4.60;99.90
7163;DHT22;3623;47.098;15.446;2022-12-18T04:01:30;-4.70;99.90
7163;DHT22;3623;47.098;15.446;2022-12-18T04:04:00;-4.70;99.90
7163;DHT22;3623;47.098;15.446;2022-12-18T04:06:28;-4.60;99.90
7163;DHT22;3623;47.098;15.446;2022-12-18T04:08:57;-4.70;99.90
7163;DHT22;3623;47.098;15.446;2022-12-18T04:11:24;-4.70;99.90
7163;DHT22;3623;47.098;15.446;2022-12-18T04:13:55;-4.00;99.90
7163;DHT22;3623;47.098;15.446;2022-12-18T04:16:23;-4.10;99.90
7163;DHT22;3623;47.098;15.446;2022-12-18T04:18:51;-4.50;99.90
7163;DHT22;3623;47.098;15.446;2022-12-18T04:21:19;-4.50;99.90
7163;DHT22;3623;47.098;15.446;2022-12-18T04:23:46;-4.70;99.90
7163;DHT22;3623;47.098;15.446;2022-12-18T04:26:13;-4.70;99.90
7163;DHT22;3623;47.098;15.446;2022-12-18T04:28:41;-4.40;99.90
7163;DHT22;3623;47.098;15.446;2022-12-18T04:31:08;-4.60;99.90
7163;DHT22;3623;47.098;15.446;2022-12-18T04:33:35;-4.20;99.90
7163;DHT22;3623;47.098;15.446;2022-12-18T04:36:04;-4.70;99.90
7163;DHT22;3623;47.098;15.446;2022-12-18T04:38:31;-4.70;99.90
7163;DHT22;3623;47.098;15.446;2022-12-18T04:40:59;-4.00;99.90
7163;DHT22;3623;47.098;15.446;2022-12-18T04:43:26;-4.90;99.90
7163;DHT22;3623;47.098;15.446;2022-12-18T04:45:53;-4.60;99.90
7163;DHT22;3623;47.098;15.446;2022-12-18T04:48:20;-4.80;99.90
7163;DHT22;3623;47.098;15.446;2022-12-18T04:50:47;-3.50;99.90
7163;DHT22;3623;47.098;15.446;2022-12-18T04:53:16;-4.10;99.90
7163;DHT22;3623;47.098;15.446;2022-12-18T04:55:43;-3.90;99.90
7163;DHT22;3623;47.098;15.446;2022-12-18T04:58:10;-4.80;99.90
7163;DHT22;3623;47.098;15.446;2022-12-18T05:00:37;-4.20;99.90
7163;DHT22;3623;47.098;15.446;2022-12-18T05:03:05;-5.00;99.90
7163;DHT22;3623;47.098;15.446;2022-12-18T05:05:33;-5.00;99.90
7163;DHT22;3623;47.098;15.446;2022-12-18T05:08:01;-4.60;99.90
7163;DHT22;3623;47.098;15.446;2022-12-18T05:10:29;-5.00;99.90
7163;DHT22;3623;47.098;15.446;2022-12-18T05:12:56;-4.30;99.90
7163;DHT22;3623;47.098;15.446;2022-12-18T05:15:28;-4.80;99.90
7163;DHT22;3623;47.098;15.446;2022-12-18T05:17:55;-4.90;99.90
7163;DHT22;3623;47.098;15.446;2022-12-18T05:20:22;-4.20;99.90
7163;DHT22;3623;47.098;15.446;2022-12-18T05:22:50;-4.70;99.90
7163;DHT22;3623;47.098;15.446;2022-12-18T05:25:17;-4.80;99.90
7163;DHT22;3623;47.098;15.446;2022-12-18T05:27:46;-4.90;99.90
7163;DHT22;3623;47.098;15.446;2022-12-18T05:30:14;-5.00;99.90
7163;DHT22;3623;47.098;15.446;2022-12-18T05:32:41;-4.90;99.90
7163;DHT22;3623;47.098;15.446;2022-12-18T05:35:10;-5.10;99.90
7163;DHT22;3623;47.098;15.446;2022-12-18T05:37:37;-4.90;99.90
7163;DHT22;3623;47.098;15.446;2022-12-18T05:40:05;-4.50;99.90
7163;DHT22;3623;47.098;15.446;2022-12-18T05:42:33;-5.10;99.90
7163;DHT22;3623;47.098;15.446;2022-12-18T05:45:01;-5.10;99.90
7163;DHT22;3623;47.098;15.446;2022-12-18T05:47:29;-5.10;99.90
7163;DHT22;3623;47.098;15.446;2022-12-18T05:49:56;-5.00;99.90
7163;DHT22;3623;47.098;15.446;2022-12-18T05:52:23;-5.10;99.90
7163;DHT22;3623;47.098;15.446;2022-12-18T05:54:50;-5.10;99.90
7163;DHT22;3623;47.098;15.446;2022-12-18T05:57:17;-4.10;99.90
7163;DHT22;3623;47.098;15.446;2022-12-18T05:59:45;-4.90;99.90
7163;DHT22;3623;47.098;15.446;2022-12-18T06:02:13;-4.30;99.90
7163;DHT22;3623;47.098;15.446;2022-12-18T06:04:40;-4.30;99.90
7163;DHT22;3623;47.098;15.446;2022-12-18T06:07:07;-4.70;99.90
7163;DHT22;3623;47.098;15.446;2022-12-18T06:09:34;-5.00;99.90
7163;DHT22;3623;47.098;15.446;2022-12-18T06:12:02;-4.80;99.90
7163;DHT22;3623;47.098;15.446;2022-12-18T06:14:29;-5.10;99.90
7163;DHT22;3623;47.098;15.446;2022-12-18T06:16:56;-4.90;99.90
7163;DHT22;3623;47.098;15.446;2022-12-18T06:19:24;-4.70;99.90
7163;DHT22;3623;47.098;15.446;2022-12-18T06:21:51;-5.00;99.90
7163;DHT22;3623;47.098;15.446;2022-12-18T06:24:18;-4.20;99.90
7163;DHT22;3623;47.098;15.446;2022-12-18T06:26:45;-4.80;99.90
7163;DHT22;3623;47.098;15.446;2022-12-18T06:29:13;-4.70;99.90
7163;DHT22;3623;47.098;15.446;2022-12-18T06:31:40;-3.60;99.90
7163;DHT22;3623;47.098;15.446;2022-12-18T06:34:07;-4.60;99.90
7163;DHT22;3623;47.098;15.446;2022-12-18T06:36:35;-4.60;99.90
7163;DHT22;3623;47.098;15.446;2022-12-18T06:39:02;-4.60;99.90
7163;DHT22;3623;47.098;15.446;2022-12-18T06:41:30;-4.50;99.90
7163;DHT22;3623;47.098;15.446;2022-12-18T06:43:58;-4.40;99.90
7163;DHT22;3623;47.098;15.446;2022-12-18T06:46:25;-4.00;99.90
7163;DHT22;3623;47.098;15.446;2022-12-18T06:48:52;-4.30;99.90
7163;DHT22;3623;47.098;15.446;2022-12-18T06:51:20;-4.40;99.90
7163;DHT22;3623;47.098;15.446;2022-12-18T06:53:49;-3.60;99.90
7163;DHT22;3623;47.098;15.446;2022-12-18T06:56:16;-3.40;99.90
7163;DHT22;3623;47.098;15.446;2022-12-18T06:58:43;-4.00;99.90
7163;DHT22;3623;47.098;15.446;2022-12-18T07:01:12;-3.70;99.90
7163;DHT22;3623;47.098;15.446;2022-12-18T07:03:40;-3.30;99.90
7163;DHT22;3623;47.098;15.446;2022-12-18T07:06:13;-3.40;99.90
7163;DHT22;3623;47.098;15.446;2022-12-18T07:08:42;-4.10;99.90
7163;DHT22;3623;47.098;15.446;2022-12-18T07:11:11;-4.00;99.90
7163;DHT22;3623;47.098;15.446;2022-12-18T07:13:38;-4.00;99.90
7163;DHT22;3623;47.098;15.446;2022-12-18T07:16:07;-4.00;99.90
7163;DHT22;3623;47.098;15.446;2022-12-18T07:18:34;-3.90;99.90
7163;DHT22;3623;47.098;15.446;2022-12-18T07:21:05;-4.00;99.90
7163;DHT22;3623;47.098;15.446;2022-12-18T07:23:34;-3.80;99.90
7163;DHT22;3623;47.098;15.446;2022-12-18T07:26:02;-3.70;99.90
7163;DHT22;3623;47.098;15.446;2022-12-18T07:28:31;-3.30;99.90
7163;DHT22;3623;47.098;15.446;2022-12-18T07:30:58;-3.30;99.90
7163;DHT22;3623;47.098;15.446;2022-12-18T07:33:28;-3.50;99.90
7163;DHT22;3623;47.098;15.446;2022-12-18T07:35:55;-3.10;99.90
7163;DHT22;3623;47.098;15.446;2022-12-18T07:38:23;-3.10;99.90
7163;DHT22;3623;47.098;15.446;2022-12-18T07:40:50;-3.40;99.90
7163;DHT22;3623;47.098;15.446;2022-12-18T07:43:17;-3.20;99.90
7163;DHT22;3623;47.098;15.446;2022-12-18T07:45:48;-3.20;99.90
7163;DHT22;3623;47.098;15.446;2022-12-18T07:48:15;-2.90;99.90
7163;DHT22;3623;47.098;15.446;2022-12-18T07:50:42;-3.40;99.90
7163;DHT22;3623;47.098;15.446;2022-12-18T07:53:09;-2.90;99.90
7163;DHT22;3623;47.098;15.446;2022-12-18T07:55:37;-3.30;99.90
7163;DHT22;3623;47.098;15.446;2022-12-18T07:58:04;-2.80;99.90
7163;DHT22;3623;47.098;15.446;2022-12-18T08:00:31;-3.30;99.90
7163;DHT22;3623;47.098;15.446;2022-12-18T08:03:00;-2.30;99.90
7163;DHT22;3623;47.098;15.446;2022-12-18T08:05:27;-2.80;99.90
7163;DHT22;3623;47.098;15.446;2022-12-18T08:07:54;-3.20;99.90
7163;DHT22;3623;47.098;15.446;2022-12-18T08:10:22;-2.90;99.90
7163;DHT22;3623;47.098;15.446;2022-12-18T08:12:49;-2.40;99.90
7163;DHT22;3623;47.098;15.446;2022-12-18T08:15:17;-2.60;99.90
7163;DHT22;3623;47.098;15.446;2022-12-18T08:17:44;-2.50;99.90
7163;DHT22;3623;47.098;15.446;2022-12-18T08:20:13;-2.50;99.90
7163;DHT22;3623;47.098;15.446;2022-12-18T08:22:41;-2.50;99.90
7163;DHT22;3623;47.098;15.446;2022-12-18T08:25:08;-2.80;99.90
7163;DHT22;3623;47.098;15.446;2022-12-18T08:27:35;-2.80;99.90
7163;DHT22;3623;47.098;15.446;2022-12-18T08:30:04;-2.40;99.90
7163;DHT22;3623;47.098;15.446;2022-12-18T08:32:31;-2.70;99.90
7163;DHT22;3623;47.098;15.446;2022-12-18T08:34:59;-2.80;99.90
7163;DHT22;3623;47.098;15.446;2022-12-18T08:37:28;-2.70;99.90
7163;DHT22;3623;47.098;15.446;2022-12-18T08:39:55;-2.90;99.90
7163;DHT22;3623;47.098;15.446;2022-12-18T08:42:22;-2.70;99.90
7163;DHT22;3623;47.098;15.446;2022-12-18T08:45:07;-2.70;99.90
7163;DHT22;3623;47.098;15.446;2022-12-18T08:47:34;-2.50;99.90
7163;DHT22;3623;47.098;15.446;2022-12-18T08:50:02;-1.70;99.90
7163;DHT22;3623;47.098;15.446;2022-12-18T08:52:31;-2.20;99.90
7163;DHT22;3623;47.098;15.446;2022-12-18T08:54:58;-2.10;99.90
7163;DHT22;3623;47.098;15.446;2022-12-18T08:57:25;-2.00;99.90
7163;DHT22;3623;47.098;15.446;2022-12-18T08:59:52;-2.10;99.90
7163;DHT22;3623;47.098;15.446;2022-12-18T09:02:20;-1.70;99.90
7163;DHT22;3623;47.098;15.446;2022-12-18T09:04:47;-1.90;99.90
7163;DHT22;3623;47.098;15.446;2022-12-18T09:07:14;-2.20;99.90
7163;DHT22;3623;47.098;15.446;2022-12-18T09:09:43;-1.70;99.90
7163;DHT22;3623;47.098;15.446;2022-12-18T09:12:10;-2.00;99.90
7163;DHT22;3623;47.098;15.446;2022-12-18T09:14:37;-2.10;99.90
7163;DHT22;3623;47.098;15.446;2022-12-18T09:17:04;-1.90;99.90
7163;DHT22;3623;47.098;15.446;2022-12-18T09:19:31;-2.10;99.90
7163;DHT22;3623;47.098;15.446;2022-12-18T09:21:58;-1.90;99.90
7163;DHT22;3623;47.098;15.446;2022-12-18T09:24:25;-1.90;99.90
7163;DHT22;3623;47.098;15.446;2022-12-18T09:26:54;-1.40;99.90
7163;DHT22;3623;47.098;15.446;2022-12-18T09:29:21;-1.60;99.90
7163;DHT22;3623;47.098;15.446;2022-12-18T09:31:48;-1.30;99.90
7163;DHT22;3623;47.098;15.446;2022-12-18T09:34:16;-1.00;99.90
7163;DHT22;3623;47.098;15.446;2022-12-18T09:36:43;-0.90;99.90
7163;DHT22;3623;47.098;15.446;2022-12-18T09:39:10;-1.00;99.90
7163;DHT22;3623;47.098;15.446;2022-12-18T09:41:44;-1.40;99.90
7163;DHT22;3623;47.098;15.446;2022-12-18T09:44:18;-0.90;99.90
7163;DHT22;3623;47.098;15.446;2022-12-18T09:46:50;-1.30;99.90
7163;DHT22;3623;47.098;15.446;2022-12-18T09:49:20;-1.10;99.90
7163;DHT22;3623;47.098;15.446;2022-12-18T09:51:52;-1.40;99.90
7163;DHT22;3623;47.098;15.446;2022-12-18T09:54:25;-1.30;99.90
7163;DHT22;3623;47.098;15.446;2022-12-18T09:56:53;-1.30;99.90
7163;DHT22;3623;47.098;15.446;2022-12-18T09:59:27;-0.90;99.90
7163;DHT22;3623;47.098;15.446;2022-12-18T10:01:57;-0.90;99.90
7163;DHT22;3623;47.098;15.446;2022-12-18T10:04:24;-1.00;99.90
7163;DHT22;3623;47.098;15.446;2022-12-18T10:06:58;-0.90;99.90
7163;DHT22;3623;47.098;15.446;2022-12-18T10:09:33;-1.00;99.90
7163;DHT22;3623;47.098;15.446;2022-12-18T10:12:06;-1.10;99.90
7163;DHT22;3623;47.098;15.446;2022-12-18T10:14:43;-0.60;99.90
7163;DHT22;3623;47.098;15.446;2022-12-18T10:17:19;-0.90;99.90
7163;DHT22;3623;47.098;15.446;2022-12-18T10:19:52;-0.80;99.90
7163;DHT22;3623;47.098;15.446;2022-12-18T10:22:30;-0.60;99.90
7163;DHT22;3623;47.098;15.446;2022-12-18T10:25:05;-0.40;99.90
7163;DHT22;3623;47.098;15.446;2022-12-18T10:27:37;-0.50;99.90
7163;DHT22;3623;47.098;15.446;2022-12-18T10:30:13;-0.60;99.90
7163;DHT22;3623;47.098;15.446;2022-12-18T10:32:40;-0.40;99.90
7163;DHT22;3623;47.098;15.446;2022-12-18T10:35:11;0.20;99.90
7163;DHT22;3623;47.098;15.446;2022-12-18T10:38:00;-0.60;99.90
7163;DHT22;3623;47.098;15.446;2022-12-18T10:40:27;-0.40;99.90
7163;DHT22;3623;47.098;15.446;2022-12-18T10:43:05;-0.60;99.90
7163;DHT22;3623;47.098;15.446;2022-12-18T10:45:38;-0.70;99.90
7163;DHT22;3623;47.098;15.446;2022-12-18T10:48:18;-0.60;99.90
7163;DHT22;3623;47.098;15.446;2022-12-18T10:50:48;-0.50;99.90
7163;DHT22;3623;47.098;15.446;2022-12-18T10:53:20;-0.60;99.90
7163;DHT22;3623;47.098;15.446;2022-12-18T10:55:47;-0.80;99.90
7163;DHT22;3623;47.098;15.446;2022-12-18T10:58:24;-0.90;99.90
7163;DHT22;3623;47.098;15.446;2022-12-18T11:01:12;-0.80;99.90
7163;DHT22;3623;47.098;15.446;2022-12-18T11:03:41;-0.70;99.90
7163;DHT22;3623;47.098;15.446;2022-12-18T11:06:10;-0.80;99.90
7163;DHT22;3623;47.098;15.446;2022-12-18T11:08:38;-0.90;99.90
7163;DHT22;3623;47.098;15.446;2022-12-18T11:11:14;-0.80;99.90
7163;DHT22;3623;47.098;15.446;2022-12-18T11:13:58;-0.70;99.90
7163;DHT22;3623;47.098;15.446;2022-12-18T11:16:32;-1.10;99.90
7163;DHT22;3623;47.098;15.446;2022-12-18T11:19:24;-0.90;99.90
7163;DHT22;3623;47.098;15.446;2022-12-18T11:21:52;-1.10;99.90
7163;DHT22;3623;47.098;15.446;2022-12-18T11:24:22;-1.10;99.90
7163;DHT22;3623;47.098;15.446;2022-12-18T11:26:50;-1.10;99.90
7163;DHT22;3623;47.098;15.446;2022-12-18T11:29:20;-1.20;99.90
7163;DHT22;3623;47.098;15.446;2022-12-18T11:31:51;-1.00;99.90
7163;DHT22;3623;47.098;15.446;2022-12-18T11:34:22;-0.80;99.90
7163;DHT22;3623;47.098;15.446;2022-12-18T11:36:52;-1.00;99.90
7163;DHT22;3623;47.098;15.446;2022-12-18T11:39:24;-1.30;99.90
7163;DHT22;3623;47.098;15.446;2022-12-18T11:41:57;-1.10;99.90
7163;DHT22;3623;47.098;15.446;2022-12-18T11:44:45;-1.20;99.90
7163;DHT22;3623;47.098;15.446;2022-12-18T11:47:23;-1.10;99.90
7163;DHT22;3623;47.098;15.446;2022-12-18T11:49:53;-1.00;99.90
7163;DHT22;3623;47.098;15.446;2022-12-18T11:52:24;-1.10;99.90
7163;DHT22;3623;47.098;15.446;2022-12-18T11:54:56;-1.20;99.90
7163;DHT22;3623;47.098;15.446;2022-12-18T11:57:32;-1.00;99.90
7163;DHT22;3623;47.098;15.446;2022-12-18T12:00:07;-0.90;99.90
7163;DHT22;3623;47.098;15.446;2022-12-18T12:02:48;-1.40;99.90
7163;DHT22;3623;47.098;15.446;2022-12-18T12:05:27;-1.40;99.90
7163;DHT22;3623;47.098;15.446;2022-12-18T12:08:01;-1.50;99.90
7163;DHT22;3623;47.098;15.446;2022-12-18T12:10:43;-1.50;99.90
7163;DHT22;3623;47.098;15.446;2022-12-18T12:13:23;-1.40;99.90
7163;DHT22;3623;47.098;15.446;2022-12-18T12:16:02;-1.30;99.90
7163;DHT22;3623;47.098;15.446;2022-12-18T12:18:42;-1.60;99.90
7163;DHT22;3623;47.098;15.446;2022-12-18T12:21:17;-1.60;99.90
7163;DHT22;3623;47.098;15.446;2022-12-18T12:23:51;-1.60;99.90
7163;DHT22;3623;47.098;15.446;2022-12-18T12:26:26;-1.60;99.90
7163;DHT22;3623;47.098;15.446;2022-12-18T12:29:02;-1.60;99.90
7163;DHT22;3623;47.098;15.446;2022-12-18T12:31:59;-1.40;99.90
7163;DHT22;3623;47.098;15.446;2022-12-18T12:34:36;-1.70;99.90
7163;DHT22;3623;47.098;15.446;2022-12-18T12:37:18;-1.70;99.90
7163;DHT22;3623;47.098;15.446;2022-12-18T12:39:47;-1.70;99.90
7163;DHT22;3623;47.098;15.446;2022-12-18T12:42:18;-1.80;99.90
7163;DHT22;3623;47.098;15.446;2022-12-18T12:45:06;-1.70;99.90
7163;DHT22;3623;47.098;15.446;2022-12-18T12:47:42;-2.00;99.90
7163;DHT22;3623;47.098;15.446;2022-12-18T12:50:16;-2.00;99.90
7163;DHT22;3623;47.098;15.446;2022-12-18T12:52:46;-1.90;99.90
7163;DHT22;3623;47.098;15.446;2022-12-18T12:55:17;-1.40;99.90
7163;DHT22;3623;47.098;15.446;2022-12-18T12:57:48;-1.90;99.90
7163;DHT22;3623;47.098;15.446;2022-12-18T13:00:19;-1.80;99.90
7163;DHT22;3623;47.098;15.446;2022-12-18T13:02:51;-1.60;99.90
7163;DHT22;3623;47.098;15.446;2022-12-18T13:05:25;-1.80;99.90
7163;DHT22;3623;47.098;15.446;2022-12-18T13:07:59;-1.90;99.90
7163;DHT22;3623;47.098;15.446;2022-12-18T13:10:35;-1.90;99.90
7163;DHT22;3623;47.098;15.446;2022-12-18T13:13:06;-2.00;99.90
7163;DHT22;3623;47.098;15.446;2022-12-18T13:15:37;-2.10;99.90
7163;DHT22;3623;47.098;15.446;2022-12-18T13:18:26;-2.00;99.90
7163;DHT22;3623;47.098;15.446;2022-12-18T13:21:13;-2.00;99.90
7163;DHT22;3623;47.098;15.446;2022-12-18T13:23:44;-2.00;99.90
7163;DHT22;3623;47.098;15.446;2022-12-18T13:26:30;-2.10;99.90
7163;DHT22;3623;47.098;15.446;2022-12-18T13:29:02;-1.70;99.90
7163;DHT22;3623;47.098;15.446;2022-12-18T13:34:35;-2.10;99.90
7163;DHT22;3623;47.098;15.446;2022-12-18T13:37:39;-2.20;99.90
7163;DHT22;3623;47.098;15.446;2022-12-18T13:43:31;-2.20;99.90
7163;DHT22;3623;47.098;15.446;2022-12-18T13:46:04;-1.90;99.90
7163;DHT22;3623;47.098;15.446;2022-12-18T13:48:34;-2.20;99.90
7163;DHT22;3623;47.098;15.446;2022-12-18T13:51:05;-2.00;99.90
7163;DHT22;3623;47.098;15.446;2022-12-18T13:53:49;-2.20;99.90
7163;DHT22;3623;47.098;15.446;2022-12-18T13:56:22;-2.10;99.90
7163;DHT22;3623;47.098;15.446;2022-12-18T13:59:10;-2.10;99.90
7163;DHT22;3623;47.098;15.446;2022-12-18T14:01:42;-2.20;99.90
7163;DHT22;3623;47.098;15.446;2022-12-18T14:04:11;-2.20;99.90
7163;DHT22;3623;47.098;15.446;2022-12-18T14:06:38;-2.20;99.90
7163;DHT22;3623;47.098;15.446;2022-12-18T14:09:12;-2.50;99.90
7163;DHT22;3623;47.098;15.446;2022-12-18T14:11:40;-2.30;99.90
7163;DHT22;3623;47.098;15.446;2022-12-18T14:14:07;-2.50;99.90
7163;DHT22;3623;47.098;15.446;2022-12-18T14:16:35;-2.60;99.90
7163;DHT22;3623;47.098;15.446;2022-12-18T14:19:03;-2.20;99.90
7163;DHT22;3623;47.098;15.446;2022-12-18T14:21:33;-2.00;99.90
7163;DHT22;3623;47.098;15.446;2022-12-18T14:24:12;-2.20;99.90
7163;DHT22;3623;47.098;15.446;2022-12-18T14:26:40;-2.40;99.90
7163;DHT22;3623;47.098;15.446;2022-12-18T14:29:24;-2.10;99.90
7163;DHT22;3623;47.098;15.446;2022-12-18T14:32:06;-2.40;99.90
7163;DHT22;3623;47.098;15.446;2022-12-18T14:34:33;-2.50;99.90
7163;DHT22;3623;47.098;15.446;2022-12-18T14:37:00;-2.20;99.90
7163;DHT22;3623;47.098;15.446;2022-12-18T14:39:29;-3.00;99.90
7163;DHT22;3623;47.098;15.446;2022-12-18T14:41:56;-2.60;99.90
7163;DHT22;3623;47.098;15.446;2022-12-18T14:44:23;-2.50;99.90
7163;DHT22;3623;47.098;15.446;2022-12-18T14:46:51;-2.20;99.90
7163;DHT22;3623;47.098;15.446;2022-12-18T14:49:23;-2.30;99.90
7163;DHT22;3623;47.098;15.446;2022-12-18T14:51:53;-2.70;99.90
7163;DHT22;3623;47.098;15.446;2022-12-18T14:54:22;-1.90;99.90
7163;DHT22;3623;47.098;15.446;2022-12-18T14:56:53;-2.40;99.90
7163;DHT22;3623;47.098;15.446;2022-12-18T14:59:23;-2.60;99.90
7163;DHT22;3623;47.098;15.446;2022-12-18T15:01:57;-2.60;99.90
7163;DHT22;3623;47.098;15.446;2022-12-18T15:04:27;-2.10;99.90
7163;DHT22;3623;47.098;15.446;2022-12-18T15:07:20;-2.50;99.90
7163;DHT22;3623;47.098;15.446;2022-12-18T15:10:03;-2.10;99.90
7163;DHT22;3623;47.098;15.446;2022-12-18T15:12:35;-2.40;99.90
7163;DHT22;3623;47.098;15.446;2022-12-18T15:15:03;-2.30;99.90
7163;DHT22;3623;47.098;15.446;2022-12-18T15:17:31;-2.50;99.90
7163;DHT22;3623;47.098;15.446;2022-12-18T15:20:00;-2.00;99.90
7163;DHT22;3623;47.098;15.446;2022-12-18T15:22:29;-1.90;99.90
7163;DHT22;3623;47.098;15.446;2022-12-18T15:24:58;-2.50;99.90
7163;DHT22;3623;47.098;15.446;2022-12-18T15:27:28;-2.40;99.90
7163;DHT22;3623;47.098;15.446;2022-12-18T15:30:18;-2.50;99.90
7163;DHT22;3623;47.098;15.446;2022-12-18T15:32:46;-2.60;99.90
7163;DHT22;3623;47.098;15.446;2022-12-18T15:35:17;-2.60;99.90
7163;DHT22;3623;47.098;15.446;2022-12-18T15:37:47;-2.40;99.90
7163;DHT22;3623;47.098;15.446;2022-12-18T15:40:15;-2.40;99.90
7163;DHT22;3623;47.098;15.446;2022-12-18T15:42:43;-2.60;99.90
7163;DHT22;3623;47.098;15.446;2022-12-18T15:45:29;-2.50;99.90
7163;DHT22;3623;47.098;15.446;2022-12-18T15:47:57;-2.50;99.90
7163;DHT22;3623;47.098;15.446;2022-12-18T15:50:24;-2.50;99.90
7163;DHT22;3623;47.098;15.446;2022-12-18T15:52:53;-2.50;99.90
7163;DHT22;3623;47.098;15.446;2022-12-18T15:55:22;-2.40;99.90
7163;DHT22;3623;47.098;15.446;2022-12-18T15:58:09;-2.40;99.90
7163;DHT22;3623;47.098;15.446;2022-12-18T16:00:39;-2.30;99.90
7163;DHT22;3623;47.098;15.446;2022-12-18T16:03:08;-2.00;99.90
7163;DHT22;3623;47.098;15.446;2022-12-18T16:05:35;-2.30;99.90
7163;DHT22;3623;47.098;15.446;2022-12-18T16:08:02;-2.30;99.90
7163;DHT22;3623;47.098;15.446;2022-12-18T16:10:29;-2.50;99.90
7163;DHT22;3623;47.098;15.446;2022-12-18T16:12:57;-2.10;99.90
7163;DHT22;3623;47.098;15.446;2022-12-18T16:15:24;-1.90;99.90